Terminal Aerodrome Forecast
Issued by NWS Sioux Falls, SD

Home | Current Version | Previous Version | Graphics & Text | Print | Product List | Glossary On
Versions: 1 2 3 4 5 6 7 8 9 10 11 12 13 14 15 16 17 18 19 20 21 22 23 24 25 26
052
FTUS43 KFSD 241130
TAFSUX
TAF
KSUX 241130Z 2412/2512 14013KT P6SM SCT130 BKN200 WS010/18040KT
     FM241300 16015G23KT P6SM SCT130 BKN200
     FM241600 19020G28KT P6SM SCT070 BKN140
     FM242300 21012KT P6SM SCT110
     FM250200 VRB05KT P6SM SCT100
     FM250800 36007KT P6SM SCT040 BKN100=

USA.gov is the U.S. government's official web portal to all federal, state and local government web resources and services.